Terminal Aerodrome Forecast
Issued by NWS

Home | Current Version | Previous Version | Graphics & Text | Print | Product List | Glossary On
Versions: 1 2 3 4 5 6 7 8 9 10 11 12 13 14
524
FTUS43 KMPX 152339
TAFRNH
TAF
KRNH 152339Z 1600/1624 33011KT P6SM -SN SCT020 BKN040
     FM160700 33007KT P6SM FEW020 BKN050
     FM161700 30007KT P6SM FEW200=

USA.gov is the U.S. government's official web portal to all federal, state and local government web resources and services.